Time;durP1;ratioP1;P1;durP2;ratioP2;P2;SDS_P1;SDS_P2;PMS_P1;PMS_P2;Temp;Humidity;BMP_temperature;BMP_pressure;BME280_temperature;BME280_humidity;BME280_pressure;Samples;Min_cycle;Max_cycle;Signal;HPM_P1;HPM_P2
2021/05/30 00:00:17;;;;;;;0.75;0.30;;;12.70;99.90;;;12.21;72.73;101022.53;4969894;28;20141;-46
2021/05/30 00:02:43;;;;;;;1.10;0.32;;;12.80;99.90;;;12.17;73.03;101012.50;4969909;28;20121;-44
2021/05/30 00:05:11;;;;;;;0.60;0.20;;;12.70;99.90;;;12.08;73.24;101019.38;4951846;28;20139;-47
2021/05/30 00:07:37;;;;;;;0.85;0.30;;;12.70;99.90;;;12.09;73.10;101023.66;4969642;28;20041;-51
2021/05/30 00:10:06;;;;;;;1.77;0.82;;;12.60;99.90;;;12.05;73.50;101017.06;4951701;28;20046;-46
2021/05/30 00:12:34;;;;;;;1.02;0.30;;;12.60;99.90;;;12.05;73.27;101013.63;4969213;28;20077;-47
2021/05/30 00:15:00;;;;;;;0.95;0.30;;;12.60;99.90;;;12.21;71.97;101016.47;4969509;28;20035;-45
2021/05/30 00:17:26;;;;;;;0.75;0.30;;;12.70;99.90;;;12.44;70.00;101022.16;4968945;28;20039;-45
2021/05/30 00:19:52;;;;;;;0.77;0.30;;;12.80;99.90;;;12.70;68.49;101017.94;4969044;28;20031;-45
2021/05/30 00:22:18;;;;;;;0.50;0.30;;;13.10;99.90;;;12.47;70.22;101016.66;4969032;28;20050;-53
2021/05/30 00:24:44;;;;;;;2.78;0.30;;;13.00;99.90;;;12.45;70.17;101013.34;4969304;28;20117;-49
2021/05/30 00:27:10;;;;;;;1.38;0.30;;;13.00;99.90;;;12.40;70.34;101013.78;4968910;28;20439;-51
2021/05/30 00:29:36;;;;;;;0.95;0.20;;;12.90;99.90;;;12.76;67.20;101008.69;4951711;28;20126;-50
2021/05/30 00:32:02;;;;;;;1.85;0.28;;;13.10;99.90;;;12.84;67.25;101014.81;4969341;28;20121;-50
2021/05/30 00:34:28;;;;;;;1.95;0.30;;;13.30;99.90;;;12.54;69.18;101018.56;4969100;28;20402;-48
2021/05/30 00:36:54;;;;;;;1.73;0.30;;;13.10;99.90;;;12.48;69.15;101016.50;4968829;28;20034;-51
2021/05/30 00:39:20;;;;;;;0.60;0.30;;;13.10;99.90;;;12.63;67.92;101016.88;4968729;28;20113;-50
2021/05/30 00:41:46;;;;;;;1.33;0.22;;;13.10;99.90;;;12.46;69.00;101015.00;4968894;28;20041;-53
2021/05/30 00:44:32;;;;;;;0.68;0.30;;;13.00;99.90;;;12.43;68.78;101016.13;4968666;28;20134;-50
2021/05/30 00:46:59;;;;;;;0.50;0.20;;;13.00;99.90;;;12.51;67.96;101018.00;4969213;28;20098;-48
2021/05/30 00:49:26;;;;;;;0.45;0.20;;;13.00;99.90;;;12.56;67.54;101021.03;4968701;28;20026;-50
2021/05/30 00:51:53;;;;;;;1.08;0.30;;;13.00;99.90;;;12.68;66.86;101019.06;4968839;28;20035;-50
2021/05/30 00:54:20;;;;;;;0.50;0.30;;;13.10;99.90;;;12.38;68.73;101018.31;4951630;28;20117;-49
2021/05/30 00:56:46;;;;;;;0.60;0.30;;;13.00;99.90;;;12.21;69.53;101016.47;4968914;28;20047;-45
2021/05/30 00:59:13;;;;;;;0.77;0.40;;;12.80;99.90;;;12.13;69.82;101019.78;4951352;28;20038;-45
2021/05/30 01:01:41;;;;;;;0.80;0.30;;;12.70;99.90;;;12.14;69.75;101016.22;4951330;28;20066;-47
2021/05/30 01:04:10;;;;;;;0.60;0.30;;;12.70;99.90;;;12.16;69.97;101006.44;4968608;28;20394;-48
2021/05/30 01:06:38;;;;;;;1.27;0.52;;;12.70;99.90;;;12.03;70.82;101007.72;4967262;28;20060;-45
2021/05/30 01:09:05;;;;;;;0.55;0.20;;;12.60;99.90;;;12.32;68.57;101011.06;4951311;28;20042;-44
2021/05/30 01:11:32;;;;;;;2.15;0.40;;;12.70;99.90;;;12.61;66.33;101009.16;4968674;28;20118;-48
2021/05/30 01:13:59;;;;;;;5.05;0.47;;;13.00;99.90;;;12.62;66.73;101010.81;4968686;28;20035;-44
2021/05/30 01:16:27;;;;;;;1.35;0.22;;;13.10;99.90;;;12.60;66.75;101009.31;4967173;28;20504;-45
2021/05/30 01:18:57;;;;;;;1.67;0.90;;;13.10;99.90;;;12.50;67.47;101016.38;4951102;28;20046;-48
2021/05/30 01:21:24;;;;;;;0.95;0.20;;;13.10;99.90;;;12.56;66.66;101013.19;4967153;28;20406;-46
2021/05/30 01:23:53;;;;;;;1.10;0.20;;;13.10;99.90;;;12.54;66.90;101007.28;4968447;28;20031;-46
2021/05/30 01:26:20;;;;;;;1.20;0.30;;;13.10;99.90;;;12.53;66.58;101000.41;4968527;28;20403;-47
2021/05/30 01:28:48;;;;;;;0.90;0.40;;;13.00;99.90;;;12.56;66.36;101011.41;4967006;28;20482;-46
2021/05/30 01:31:16;;;;;;;0.80;0.20;;;13.10;99.90;;;12.74;65.10;101006.22;4951067;28;20042;-47
2021/05/30 01:33:42;;;;;;;0.73;0.20;;;13.10;99.90;;;12.99;64.00;101006.50;4968668;28;20034;-46
2021/05/30 01:36:08;;;;;;;1.23;0.30;;;13.30;99.90;;;13.04;63.51;100997.25;4969553;28;20130;-47
2021/05/30 01:38:34;;;;;;;1.23;0.20;;;13.50;99.90;;;13.20;62.28;100994.81;4971979;28;20046;-45
2021/05/30 01:41:01;;;;;;;3.35;0.30;;;13.60;99.90;;;13.37;61.52;100987.94;4971844;28;20031;-47
2021/05/30 01:43:27;;;;;;;3.13;0.30;;;13.80;99.90;;;13.51;60.18;100982.19;4971480;28;20050;-45
2021/05/30 01:45:53;;;;;;;0.82;0.20;;;13.90;99.50;;;13.52;59.86;100983.00;4971703;28;20039;-46
2021/05/30 01:48:20;;;;;;;1.65;0.20;;;13.90;98.80;;;13.56;59.89;100979.09;4970121;28;20398;-44
2021/05/30 01:50:49;;;;;;;1.40;0.15;;;14.00;98.60;;;13.60;59.54;100977.84;4970408;28;20058;-45
2021/05/30 01:53:17;;;;;;;0.52;0.20;;;14.10;98.20;;;13.55;60.33;100973.03;4954587;28;20204;-46
2021/05/30 01:58:22;;;;;;;1.42;0.22;;;14.00;98.80;;;12.89;64.34;100973.38;4971609;28;20097;-47
2021/05/30 02:00:49;;;;;;;1.05;0.30;;;13.60;99.90;;;12.49;66.76;100970.28;4971490;28;20124;-49
2021/05/30 02:03:17;;;;;;;0.80;0.35;;;13.20;99.90;;;12.07;69.01;100977.75;4971537;28;20096;-49
2021/05/30 02:05:51;;;;;;;0.60;0.30;;;12.90;99.90;;;11.85;70.51;100979.69;4954081;28;20035;-46
2021/05/30 02:08:17;;;;;;;1.70;0.30;;;12.50;99.90;;;11.63;71.21;100978.19;4971415;28;20030;-45
2021/05/30 02:10:43;;;;;;;2.40;0.40;;;12.30;99.90;;;11.54;71.79;100975.59;4971534;28;20047;-47
2021/05/30 02:13:11;;;;;;;1.23;0.30;;;12.20;99.90;;;11.50;71.74;100979.44;4970925;28;20070;-46
2021/05/30 02:15:37;;;;;;;0.60;0.30;;;12.10;99.90;;;11.42;72.48;100981.91;4971068;28;20041;-47
2021/05/30 02:18:06;;;;;;;2.90;0.60;;;12.00;99.90;;;11.35;72.93;100992.06;4971111;28;20372;-46
2021/05/30 02:20:35;;;;;;;0.85;0.20;;;12.00;99.90;;;11.44;71.91;100986.03;4971355;28;20088;-45
2021/05/30 02:23:02;;;;;;;1.40;0.30;;;11.90;99.90;;;11.94;69.10;100986.69;4971242;28;20026;-48
2021/05/30 02:25:29;;;;;;;0.43;0.22;;;12.30;99.90;;;11.91;69.24;100989.59;4971105;28;20030;-49
2021/05/30 02:27:56;;;;;;;1.67;0.30;;;12.40;99.90;;;11.67;70.92;100985.75;4970900;28;20045;-45
2021/05/30 02:30:23;;;;;;;1.40;0.30;;;12.30;99.90;;;11.46;71.90;100981.50;4971054;28;20399;-45
2021/05/30 02:32:49;;;;;;;0.95;0.40;;;12.10;99.90;;;11.62;71.00;100980.94;4970744;28;20062;-47
2021/05/30 02:35:17;;;;;;;1.85;0.43;;;12.10;99.90;;;11.51;71.90;100979.31;4970895;28;20399;-48
2021/05/30 02:37:43;;;;;;;2.05;0.30;;;12.10;99.90;;;11.36;72.66;100978.06;4970867;28;20050;-45
2021/05/30 02:42:37;;;;;;;0.65;0.30;;;12.00;99.90;;;11.56;71.32;100979.72;5131244;23;20462;-46
2021/05/30 02:45:05;;;;;;;0.57;0.30;;;12.00;99.90;;;11.61;70.79;100974.91;4970316;28;20035;-45
2021/05/30 02:47:31;;;;;;;1.85;0.82;;;12.10;99.90;;;11.64;71.21;100979.84;4969692;28;20042;-44
2021/05/30 02:49:57;;;;;;;1.02;0.30;;;12.10;99.90;;;11.53;71.85;100972.16;4970592;28;20039;-48
2021/05/30 02:52:24;;;;;;;0.82;0.50;;;12.10;99.90;;;11.62;71.39;100979.16;4952876;28;20027;-45
2021/05/30 02:54:50;;;;;;;2.60;0.30;;;12.10;99.90;;;11.77;70.49;100968.34;4970256;28;20112;-47
2021/05/30 02:57:16;;;;;;;0.63;0.30;;;12.20;99.90;;;11.70;70.68;100975.88;4970378;28;20031;-47
2021/05/30 02:59:41;;;;;;;0.60;0.30;;;12.20;99.90;;;11.60;70.96;100964.59;4970379;28;20031;-45
2021/05/30 03:02:07;;;;;;;1.33;0.30;;;12.20;99.90;;;11.44;72.55;100980.81;4970301;28;20034;-47
2021/05/30 03:04:33;;;;;;;1.05;0.40;;;12.10;99.90;;;11.43;71.76;100960.91;4970057;28;20125;-46
2021/05/30 03:07:00;;;;;;;0.68;0.30;;;12.00;99.90;;;11.40;71.92;100973.41;4952608;28;20031;-50
2021/05/30 03:09:26;;;;;;;1.38;0.40;;;12.00;99.90;;;11.32;72.74;100984.53;4969942;28;20522;-47
2021/05/30 03:11:53;;;;;;;0.73;0.40;;;11.90;99.90;;;11.29;72.63;100971.78;4969985;28;20106;-44
2021/05/30 03:14:19;;;;;;;0.98;0.40;;;11.90;99.90;;;11.22;73.21;100981.09;4970188;28;20038;-44
2021/05/30 03:16:45;;;;;;;0.80;0.60;;;11.80;99.90;;;11.22;73.34;100987.13;4969871;28;20121;-50
2021/05/30 03:19:12;;;;;;;0.90;0.40;;;11.80;99.90;;;11.16;73.94;100984.25;4969935;28;20039;-47
2021/05/30 03:21:40;;;;;;;1.02;0.40;;;11.80;99.90;;;11.06;74.24;100986.00;4969859;28;20030;-45
2021/05/30 03:24:08;;;;;;;0.80;0.40;;;11.70;99.90;;;10.98;74.67;100979.69;4969437;28;20181;-45
2021/05/30 03:26:35;;;;;;;0.80;0.40;;;11.60;99.90;;;10.92;75.21;100984.59;4952105;28;20435;-48
2021/05/30 03:29:01;;;;;;;2.35;0.50;;;11.50;99.90;;;10.91;75.53;100986.38;4969600;28;20437;-47
2021/05/30 03:31:27;;;;;;;1.77;0.50;;;11.50;99.90;;;10.89;75.85;100983.09;4969839;28;20046;-44
2021/05/30 03:33:53;;;;;;;1.25;0.40;;;11.50;99.90;;;10.87;76.03;100982.38;4970098;28;20545;-48
2021/05/30 03:36:23;;;;;;;0.60;0.40;;;11.40;99.90;;;10.86;75.49;100980.78;4969536;28;20093;-46
2021/05/30 03:38:49;;;;;;;1.35;0.38;;;11.40;99.90;;;10.86;76.02;100982.56;4951988;28;20490;-45
2021/05/30 03:41:16;;;;;;;2.30;0.45;;;11.40;99.90;;;10.87;76.12;100982.38;4952203;28;20122;-44
2021/05/30 03:43:42;;;;;;;0.70;0.38;;;11.40;99.90;;;10.91;75.67;100977.75;4951645;28;20395;-49
2021/05/30 03:46:08;;;;;;;1.83;0.40;;;11.50;99.90;;;10.92;75.83;100982.81;4969590;28;20046;-47
2021/05/30 03:48:34;;;;;;;2.03;0.40;;;11.50;99.90;;;10.92;76.13;100982.81;4969691;28;20046;-51
2021/05/30 03:51:00;;;;;;;1.60;0.35;;;11.50;99.90;;;10.96;76.37;100985.97;4951703;28;20065;-49
2021/05/30 03:53:27;;;;;;;0.73;0.45;;;11.60;99.90;;;10.92;76.67;100984.59;4969440;28;20561;-49
2021/05/30 03:55:52;;;;;;;0.80;0.40;;;11.50;99.90;;;10.93;76.47;100988.84;4969508;28;20058;-46
2021/05/30 03:58:20;;;;;;;1.88;0.60;;;11.50;99.90;;;10.99;76.26;100985.72;4968806;28;20066;-45
2021/05/30 04:00:46;;;;;;;1.35;0.40;;;11.60;99.90;;;10.97;76.49;100991.06;4951418;28;20035;-45
2021/05/30 04:03:12;;;;;;;1.10;0.45;;;11.60;99.90;;;11.03;76.08;100991.50;4969087;28;20087;-49
2021/05/30 04:05:38;;;;;;;1.58;0.47;;;11.60;99.90;;;11.38;75.86;100985.75;4968765;28;20086;-45
2021/05/30 04:08:05;;;;;;;4.68;0.50;;;11.90;99.90;;;12.33;73.65;100985.75;4969028;28;20120;-50
2021/05/30 04:10:31;;;;;;;1.38;0.45;;;12.80;99.90;;;14.01;68.85;100978.94;4968769;28;20486;-46
2021/05/30 04:12:56;;;;;;;1.13;0.35;;;14.80;99.90;;;16.18;62.74;100978.72;4969115;28;20035;-49
2021/05/30 04:15:23;;;;;;;1.00;0.30;;;17.50;99.90;;;17.39;58.57;100973.03;4969291;28;20077;-46
2021/05/30 04:17:49;;;;;;;1.35;0.38;;;19.50;91.90;;;18.56;55.22;100977.59;4968752;28;20035;-46
2021/05/30 04:20:16;;;;;;;2.80;0.35;;;20.90;82.00;;;19.16;52.59;100974.66;4968785;28;20043;-50
2021/05/30 04:22:44;;;;;;;0.75;0.30;;;21.80;73.30;;;19.29;51.99;100974.00;4951333;28;20034;-47
2021/05/30 04:25:11;;;;;;;1.33;0.20;;;22.20;68.60;;;20.26;49.87;100971.47;4968959;28;20035;-47
2021/05/30 04:27:37;;;;;;;2.03;0.20;;;23.00;65.20;;;20.66;48.64;100963.72;4969080;28;20042;-48
2021/05/30 04:30:10;;;;;;;0.73;0.20;;;23.90;62.00;;;20.54;47.07;100971.41;4969032;28;20039;-45
2021/05/30 04:32:37;;;;;;;0.40;0.22;;;23.70;58.30;;;21.04;46.13;100969.31;4968618;28;20041;-46
2021/05/30 04:35:04;;;;;;;0.28;0.13;;;24.30;56.80;;;20.18;46.96;100976.91;4968622;28;20058;-47
2021/05/30 04:37:31;;;;;;;1.70;0.28;;;23.60;55.90;;;20.32;46.20;100977.81;4968644;28;20535;-46
2021/05/30 04:39:57;;;;;;;0.30;0.20;;;23.40;56.50;;;21.10;44.55;100979.13;4951413;28;20389;-47
2021/05/30 04:42:23;;;;;;;0.82;0.20;;;24.20;55.00;;;22.09;42.45;100969.38;4968544;28;20050;-46
2021/05/30 04:44:49;;;;;;;1.65;0.20;;;25.70;51.90;;;23.07;39.98;100975.31;4951056;28;20034;-45
2021/05/30 04:47:15;;;;;;;0.50;0.20;;;26.60;50.00;;;23.42;39.50;100975.66;4968595;28;20031;-44
2021/05/30 04:49:41;;;;;;;1.35;0.20;;;27.30;48.50;;;23.99;38.38;100971.09;4968831;28;20442;-45
2021/05/30 04:52:11;;;;;;;0.38;0.20;;;27.70;47.50;;;24.15;37.84;100972.34;4968802;28;20447;-44
2021/05/30 04:54:37;;;;;;;0.40;0.20;;;28.40;46.20;;;24.70;36.87;100970.47;4968759;28;20382;-45
2021/05/30 04:57:04;;;;;;;0.77;0.20;;;29.20;45.00;;;25.06;36.83;100979.44;4968565;28;20047;-45
2021/05/30 04:59:31;;;;;;;1.42;0.30;;;29.60;44.40;;;25.06;36.19;100976.75;4951206;28;20414;-49
2021/05/30 05:01:57;;;;;;;1.65;0.20;;;29.70;43.50;;;25.10;35.93;100973.41;4968612;28;20366;-51
2021/05/30 05:04:23;;;;;;;1.00;0.25;;;29.90;42.50;;;24.45;37.46;100977.78;4968552;28;20039;-53
2021/05/30 05:06:49;;;;;;;0.50;0.20;;;29.20;43.70;;;24.45;37.57;100978.59;4968638;28;20049;-51
2021/05/30 05:09:15;;;;;;;0.60;0.20;;;28.90;44.20;;;25.37;36.32;100981.84;4968727;28;20046;-48
2021/05/30 05:11:41;;;;;;;0.55;0.20;;;29.40;43.80;;;24.96;36.45;100981.84;4953148;28;20050;-44
2021/05/30 05:14:08;;;;;;;0.50;0.20;;;30.00;42.60;;;25.40;34.74;100989.38;4972225;28;20043;-45
2021/05/30 05:16:34;;;;;;;0.88;0.15;;;30.10;42.20;;;25.42;34.45;100981.16;4971960;28;20053;-50
2021/05/30 05:19:00;;;;;;;0.20;0.10;;;30.00;41.30;;;26.17;32.79;100983.13;4972314;28;20487;-46
2021/05/30 05:21:27;;;;;;;2.05;0.20;;;30.60;40.50;;;26.55;32.94;100975.38;4972098;28;20027;-49
2021/05/30 05:23:54;;;;;;;0.20;0.10;;;31.10;40.40;;;26.59;32.75;100975.72;4938337;28;20038;-47
2021/05/30 05:26:21;;;;;;;0.68;0.10;;;31.20;39.70;;;26.82;32.20;100977.50;4954560;28;20561;-45
2021/05/30 05:28:47;;;;;;;1.08;0.10;;;31.50;39.50;;;27.22;31.08;100986.28;4971968;28;20030;-47
2021/05/30 05:31:13;;;;;;;1.58;0.10;;;32.10;38.70;;;27.40;30.59;100975.34;4972045;28;20500;-46
2021/05/30 05:33:39;;;;;;;0.20;0.10;;;32.70;38.00;;;27.26;30.68;100979.38;4972163;28;20120;-47
2021/05/30 05:36:06;;;;;;;0.93;0.10;;;32.80;37.60;;;26.95;31.30;100979.88;4971940;28;20031;-50
2021/05/30 05:38:31;;;;;;;0.30;0.10;;;32.20;38.10;;;26.83;31.33;100982.63;4972073;28;20071;-52
2021/05/30 05:40:57;;;;;;;0.30;0.20;;;32.10;37.80;;;26.19;32.46;100976.50;4971700;28;20117;-53
2021/05/30 05:43:23;;;;;;;0.90;0.10;;;31.50;38.40;;;25.67;32.96;100978.28;4971549;28;20471;-51
2021/05/30 05:45:50;;;;;;;0.30;0.20;;;30.70;39.10;;;22.75;37.79;100989.53;4971406;28;20441;-51
2021/05/30 05:48:16;;;;;;;0.40;0.10;;;27.10;43.30;;;21.52;40.64;100988.56;4971715;28;20046;-46
2021/05/30 05:50:46;;;;;;;1.25;0.10;;;24.70;47.20;;;21.80;40.22;100986.50;4971556;28;20070;-45
2021/05/30 05:53:13;;;;;;;2.20;0.20;;;25.30;46.20;;;20.37;43.25;100978.81;4971498;28;20600;-51
2021/05/30 05:55:40;;;;;;;0.35;0.05;;;23.60;49.00;;;20.79;42.34;100985.78;4971677;28;20042;-53
2021/05/30 05:58:06;;;;;;;1.90;0.17;;;22.80;51.30;;;23.33;37.20;100982.28;4953793;28;20097;-47
2021/05/30 06:00:33;;;;;;;0.25;0.10;;;25.90;46.30;;;25.23;33.38;100974.25;4971370;28;20390;-45
2021/05/30 06:02:59;;;;;;;1.10;0.20;;;29.00;41.00;;;26.10;32.15;100975.25;4971402;28;20034;-50
2021/05/30 06:05:26;;;;;;;1.70;0.10;;;30.70;38.90;;;26.32;31.68;100980.81;4971290;28;20442;-53
2021/05/30 06:07:55;;;;;;;1.02;0.20;;;31.50;38.50;;;25.37;33.42;100986.34;4953564;28;20077;-48
2021/05/30 06:10:24;;;;;;;0.82;0.10;;;29.50;40.80;;;25.69;33.78;100984.22;4971156;28;20061;-45
2021/05/30 06:12:57;;;;;;;0.80;0.20;;;30.10;40.10;;;26.87;31.55;100978.41;4937523;28;20039;-47
2021/05/30 06:15:24;;;;;;;1.00;0.20;;;31.70;38.30;;;27.63;31.18;100982.41;4971337;28;20031;-50
2021/05/30 06:18:08;;;;;;;0.50;0.10;;;32.50;38.10;;;27.93;30.06;100976.66;4971105;28;20035;-47
2021/05/30 06:20:35;;;;;;;1.17;0.20;;;33.10;36.80;;;27.67;30.65;100967.47;4953286;28;20035;-54
2021/05/30 06:23:01;;;;;;;0.30;0.10;;;33.20;36.80;;;27.56;31.39;100978.25;4970629;28;20503;-54
2021/05/30 06:25:27;;;;;;;1.77;0.20;;;32.60;38.10;;;28.49;29.58;100977.41;4970792;28;20035;-49
2021/05/30 06:27:57;;;;;;;0.75;0.15;;;33.30;37.20;;;28.85;29.19;100978.63;4953222;28;20053;-52
2021/05/30 06:30:26;;;;;;;0.35;0.10;;;33.90;36.70;;;29.02;28.85;100978.53;4971090;28;20047;-48
2021/05/30 06:32:52;;;;;;;0.20;0.10;;;34.30;35.80;;;28.97;28.46;100965.06;4953411;28;20058;-49
2021/05/30 06:35:18;;;;;;;0.68;0.10;;;34.50;35.00;;;29.22;28.39;100967.97;4970671;28;20078;-49
2021/05/30 06:37:44;;;;;;;0.47;0.13;;;34.70;35.00;;;28.87;28.21;100967.63;4970489;28;20031;-48
2021/05/30 06:40:11;;;;;;;1.55;0.10;;;34.30;35.20;;;28.78;27.85;100961.91;4970700;28;20057;-49
2021/05/30 06:42:37;;;;;;;1.13;0.10;;;34.50;34.30;;;27.71;29.50;100971.28;4970031;28;20047;-52
2021/05/30 06:45:05;;;;;;;0.25;0.10;;;32.70;36.30;;;28.14;28.75;100971.59;4970419;28;20570;-47
2021/05/30 06:47:32;;;;;;;0.38;0.20;;;33.20;35.40;;;26.38;30.86;100971.88;4970388;28;20035;-46
2021/05/30 06:49:58;;;;;;;0.40;0.10;;;30.90;37.80;;;26.89;30.04;100970.16;4970457;28;20069;-49
2021/05/30 06:52:24;;;;;;;2.28;0.20;;;31.20;37.50;;;28.03;28.88;100970.66;4969891;28;20041;-49
2021/05/30 06:54:50;;;;;;;0.30;0.10;;;32.40;36.70;;;29.49;27.31;100957.19;4953000;28;20030;-50
2021/05/30 06:57:17;;;;;;;2.22;0.10;;;34.20;35.10;;;30.17;25.87;100968.88;4970237;28;20038;-48
2021/05/30 06:59:43;;;;;;;0.60;0.20;;;35.40;33.90;;;29.37;26.53;100959.22;4952587;28;20585;-51
2021/05/30 07:02:09;;;;;;;2.15;0.10;;;34.90;33.80;;;27.33;28.94;100965.84;4970043;28;20031;-50
2021/05/30 07:04:35;;;;;;;0.65;0.10;;;32.70;35.50;;;25.53;31.97;100960.84;4970231;28;20054;-48
2021/05/30 07:07:01;;;;;;;0.75;0.10;;;29.40;39.90;;;24.69;33.58;100965.38;4952424;28;20491;-50
2021/05/30 07:09:27;;;;;;;0.32;0.10;;;27.70;41.70;;;23.91;33.86;100963.38;4970356;28;20030;-47
2021/05/30 07:11:53;;;;;;;0.25;0.10;;;26.40;42.50;;;25.38;31.66;100962.13;4969911;28;20426;-50
2021/05/30 07:14:19;;;;;;;2.08;0.10;;;27.60;41.60;;;25.96;31.52;100963.22;4969871;28;20038;-47
2021/05/30 07:16:45;;;;;;;5.35;0.85;;;27.70;42.60;;;25.21;32.40;100963.81;4969728;28;20046;-50
2021/05/30 07:19:11;;;;;;;4.00;0.17;;;27.10;42.80;;;23.96;34.15;100966.22;4969867;28;20031;-46
2021/05/30 07:21:36;;;;;;;0.22;0.13;;;26.10;43.90;;;23.13;35.41;100976.28;4969781;28;20037;-47
2021/05/30 07:24:04;;;;;;;0.60;0.10;;;25.10;45.10;;;22.40;36.50;100971.31;4969763;28;20113;-48
2021/05/30 07:26:30;;;;;;;0.80;0.20;;;24.20;46.10;;;21.94;37.25;100971.41;4969816;28;20031;-52
2021/05/30 07:28:56;;;;;;;0.40;0.10;;;23.50;47.10;;;21.79;37.77;100973.47;4969541;28;20070;-47
2021/05/30 07:31:22;;;;;;;2.35;0.10;;;23.10;47.70;;;21.86;37.63;100972.44;4951789;28;20069;-45
2021/05/30 07:33:49;;;;;;;0.30;0.10;;;23.00;48.70;;;22.07;37.65;100965.28;4968693;28;20415;-51
2021/05/30 07:36:15;;;;;;;0.50;0.20;;;23.10;48.70;;;22.10;37.40;100971.00;4968850;28;20023;-47
2021/05/30 07:38:41;;;;;;;0.75;0.10;;;23.30;48.50;;;22.11;37.57;100969.97;4969428;28;20057;-49
2021/05/30 07:41:07;;;;;;;0.38;0.10;;;23.30;48.50;;;21.44;38.69;100975.50;4967899;28;20063;-48
2021/05/30 07:43:33;;;;;;;0.80;0.20;;;22.80;49.30;;;20.98;38.94;100965.63;4969343;28;20515;-51
2021/05/30 07:45:59;;;;;;;0.30;0.17;;;22.20;49.40;;;21.17;38.07;100966.72;4969321;28;20046;-50
2021/05/30 07:48:25;;;;;;;0.35;0.20;;;22.10;49.40;;;21.24;38.33;100974.69;4969109;28;20047;-49
2021/05/30 07:50:51;;;;;;;0.73;0.10;;;22.10;49.70;;;21.59;37.58;100967.38;4969196;28;20430;-47
2021/05/30 07:53:17;;;;;;;0.28;0.10;;;22.40;49.40;;;21.69;37.85;100970.44;4969389;28;20042;-47
2021/05/30 07:55:44;;;;;;;1.35;0.17;;;22.60;49.30;;;21.75;38.77;100969.59;4969300;28;20398;-46
2021/05/30 07:58:10;;;;;;;1.02;0.65;;;22.60;50.10;;;21.56;39.91;100967.78;4968926;28;20079;-46
2021/05/30 08:00:36;;;;;;;0.90;0.15;;;22.60;51.20;;;21.60;39.55;100964.50;4969049;28;20037;-47
2021/05/30 08:03:03;;;;;;;1.42;0.20;;;22.50;51.40;;;20.92;41.00;100966.44;4969408;28;20058;-46
2021/05/30 08:05:29;;;;;;;0.50;0.10;;;22.00;52.00;;;20.64;40.71;100958.63;4968636;28;20081;-47
2021/05/30 08:07:55;;;;;;;0.30;0.13;;;21.70;51.70;;;21.09;39.76;100965.06;4969378;28;20054;-48
2021/05/30 08:10:26;;;;;;;1.38;0.10;;;21.80;52.20;;;21.21;39.81;100954.72;4968909;28;20031;-47
2021/05/30 08:12:52;;;;;;;1.00;0.10;;;21.80;52.50;;;21.85;39.15;100946.13;4951315;28;20354;-46
2021/05/30 08:15:19;;;;;;;0.88;0.10;;;22.00;52.40;;;21.49;39.34;100946.56;4951306;28;20083;-49
2021/05/30 08:17:46;;;;;;;0.82;0.17;;;22.00;52.10;;;20.17;41.90;100951.47;4951270;28;20400;-45
2021/05/30 08:20:14;;;;;;;0.93;0.20;;;21.30;53.20;;;20.00;42.39;100952.78;4935447;28;20121;-50
2021/05/30 08:22:40;;;;;;;1.52;0.20;;;20.90;54.20;;;20.69;40.90;100944.81;4969106;28;20486;-52
2021/05/30 08:25:07;;;;;;;0.28;0.10;;;21.00;54.20;;;21.34;39.23;100946.75;4968671;28;20367;-50
2021/05/30 08:27:34;;;;;;;1.75;0.20;;;21.50;52.90;;;21.97;37.84;100947.13;4968996;28;20039;-46
2021/05/30 08:29:59;;;;;;;0.10;0.10;;;22.00;52.10;;;22.33;37.30;100937.84;4968835;28;20038;-48
2021/05/30 08:32:25;;;;;;;1.65;0.10;;;22.50;50.90;;;22.84;36.42;100938.66;4968663;28;20391;-53
2021/05/30 08:34:51;;;;;;;1.83;0.20;;;23.00;50.30;;;23.18;36.41;100933.91;4968741;28;20470;-48
2021/05/30 08:37:18;;;;;;;1.00;0.30;;;23.40;50.10;;;23.01;36.36;100938.97;4968762;28;20043;-53
2021/05/30 08:39:49;;;;;;;0.40;0.17;;;23.40;49.40;;;23.11;36.07;100939.31;4951310;28;20134;-53
2021/05/30 08:42:20;;;;;;;0.20;0.10;;;23.60;49.20;;;21.76;37.99;100936.72;4951096;28;20549;-47
2021/05/30 08:44:47;;;;;;;0.15;0.10;;;22.90;49.50;;;22.58;37.16;100938.78;4968407;28;20158;-48
2021/05/30 08:47:13;;;;;;;0.70;0.20;;;22.90;50.60;;;23.86;34.74;100936.63;4972056;28;20051;-46
2021/05/30 08:49:40;;;;;;;0.45;0.10;;;23.80;49.30;;;24.26;33.23;100938.88;4972645;28;20070;-48
2021/05/30 08:52:07;;;;;;;1.02;0.20;;;24.40;47.10;;;24.31;32.33;100931.03;4972384;28;20038;-49
2021/05/30 08:54:33;;;;;;;0.30;0.10;;;24.70;46.00;;;23.43;33.22;100932.09;4972787;28;20045;-49
2021/05/30 08:56:59;;;;;;;0.68;0.20;;;24.40;45.50;;;23.60;32.90;100929.72;4972376;28;20510;-50
2021/05/30 08:59:30;;;;;;;0.77;0.10;;;24.00;45.80;;;24.66;31.64;100928.50;4972161;28;20045;-48
2021/05/30 09:02:09;;;;;;;1.50;0.20;;;24.60;46.00;;;24.73;30.66;100927.38;4972405;28;20035;-49
2021/05/30 09:04:57;;;;;;;0.10;0.10;;;25.10;44.20;;;24.95;29.63;100924.22;4954495;28;20074;-46
2021/05/30 09:07:53;;;;;;;0.40;0.20;;;25.20;43.80;;;24.81;29.58;100918.25;4954888;28;20037;-47
2021/05/30 09:10:26;;;;;;;0.50;0.10;;;25.30;43.10;;;24.51;31.46;100909.47;4951606;28;20557;-54
2021/05/30 09:13:15;;;;;;;6.97;0.25;;;25.00;44.70;;;23.91;31.54;100918.16;4972213;28;20066;-56
2021/05/30 09:16:26;;;;;;;0.50;0.15;;;24.90;43.90;;;23.00;34.08;100926.69;4972026;28;20130;-54
2021/05/30 09:18:34;;;;;;;1.50;0.10;;;24.00;45.70;;;22.76;34.30;100924.75;4963957;28;20379;-52
2021/05/30 09:21:03;;;;;;;2.65;0.20;;;23.60;45.90;;;23.29;33.47;100922.59;4954683;28;20037;-54
2021/05/30 09:23:38;;;;;;;0.50;0.10;;;23.90;46.60;;;22.37;34.71;100931.91;4972074;28;20062;-53
2021/05/30 09:26:18;;;;;;;5.68;0.52;;;23.40;46.80;;;22.45;34.79;100933.50;4972002;28;20485;-51
2021/05/30 09:29:07;;;;;;;0.80;0.20;;;23.20;47.00;;;22.02;35.02;100935.91;4954263;28;20031;-53
2021/05/30 09:31:54;;;;;;;0.98;0.30;;;22.90;46.80;;;21.74;35.54;100934.28;4971855;28;20043;-56
2021/05/30 09:34:37;;;;;;;0.30;0.10;;;22.60;47.60;;;21.52;36.32;100939.03;4971930;28;20196;-54
2021/05/30 09:37:05;;;;;;;0.25;0.10;;;22.40;48.30;;;21.58;36.77;100933.91;4971677;28;20041;-51
2021/05/30 09:39:38;;;;;;;1.40;0.10;;;22.30;49.10;;;21.62;37.22;100940.44;4972090;28;20106;-54
2021/05/30 09:42:35;;;;;;;0.60;0.20;;;22.40;49.20;;;21.51;36.14;100932.09;4953938;28;20137;-55
2021/05/30 09:45:11;;;;;;;0.50;0.20;;;22.30;48.30;;;21.36;37.69;100930.66;4953967;28;20042;-52
2021/05/30 09:47:47;;;;;;;1.95;0.77;;;22.10;50.30;;;21.82;37.62;100920.81;4954199;28;20042;-54
2021/05/30 09:50:18;;;;;;;0.55;0.20;;;22.40;50.20;;;22.24;36.98;100923.16;4971787;28;20045;-57
2021/05/30 09:52:48;;;;;;;0.98;0.20;;;22.70;49.80;;;22.15;36.76;100931.41;4954059;28;20465;-57
2021/05/30 09:55:17;;;;;;;2.22;0.20;;;22.80;49.30;;;22.12;36.51;100926.50;4971470;28;20053;-56
2021/05/30 09:58:15;;;;;;;2.95;0.20;;;22.70;49.70;;;23.28;34.41;100914.81;4970762;28;20470;-49
2021/05/30 10:01:00;;;;;;;0.40;0.22;;;23.30;49.40;;;22.94;34.29;100922.25;4953929;28;20077;-55
2021/05/30 10:03:27;;;;;;;2.47;0.50;;;23.50;47.50;;;22.57;35.05;100926.53;4971392;28;20121;-54
2021/05/30 10:05:54;;;;;;;2.40;0.20;;;23.30;47.60;;;22.74;34.46;100922.31;4971383;28;20286;-55
2021/05/30 10:08:22;;;;;;;0.65;0.20;;;23.40;47.20;;;23.74;33.12;100917.91;4969795;28;20042;-55
2021/05/30 10:10:48;;;;;;;0.20;0.10;;;23.80;47.40;;;23.29;33.77;100903.16;4953787;28;20041;-53
2021/05/30 10:13:15;;;;;;;1.10;0.20;;;24.00;46.70;;;23.24;34.14;100903.00;4971347;28;20039;-54
2021/05/30 10:15:42;;;;;;;0.40;0.17;;;23.90;46.40;;;23.03;34.06;100912.16;4971046;28;20056;-57
2021/05/30 10:18:16;;;;;;;2.35;0.20;;;23.70;46.70;;;23.83;33.43;100902.47;4953400;28;20042;-55
2021/05/30 10:20:42;;;;;;;0.98;0.20;;;24.00;47.50;;;23.75;33.88;100910.75;4970704;28;20046;-55